sensor_id;sensor_type;location;lat;lon;timestamp;temperature;humidity
6738;DHT22;3406;49.902;8.596;2024-01-30T00:00:51;2.60;86.60
6738;DHT22;3406;49.902;8.596;2024-01-30T00:03:18;2.60;86.60
6738;DHT22;3406;49.902;8.596;2024-01-30T00:05:46;2.60;86.60
6738;DHT22;3406;49.902;8.596;2024-01-30T00:08:13;2.60;86.60
6738;DHT22;3406;49.902;8.596;2024-01-30T00:10:39;2.60;86.70
6738;DHT22;3406;49.902;8.596;2024-01-30T00:13:06;2.50;86.60
6738;DHT22;3406;49.902;8.596;2024-01-30T00:15:33;2.50;86.70
6738;DHT22;3406;49.902;8.596;2024-01-30T00:18:00;2.50;86.70
6738;DHT22;3406;49.902;8.596;2024-01-30T00:20:26;2.50;86.80
6738;DHT22;3406;49.902;8.596;2024-01-30T00:22:54;2.50;86.80
6738;DHT22;3406;49.902;8.596;2024-01-30T00:25:21;2.50;86.90
6738;DHT22;3406;49.902;8.596;2024-01-30T00:27:47;2.50;86.90
6738;DHT22;3406;49.902;8.596;2024-01-30T00:30:14;2.50;87.00
6738;DHT22;3406;49.902;8.596;2024-01-30T00:32:41;2.50;87.00
6738;DHT22;3406;49.902;8.596;2024-01-30T00:35:08;2.40;86.90
6738;DHT22;3406;49.902;8.596;2024-01-30T00:37:36;2.40;86.90
6738;DHT22;3406;49.902;8.596;2024-01-30T00:40:05;2.30;86.80
6738;DHT22;3406;49.902;8.596;2024-01-30T00:42:32;2.30;86.90
6738;DHT22;3406;49.902;8.596;2024-01-30T00:44:58;2.30;86.90
6738;DHT22;3406;49.902;8.596;2024-01-30T00:47:25;2.30;86.90
6738;DHT22;3406;49.902;8.596;2024-01-30T00:49:52;2.20;86.90
6738;DHT22;3406;49.902;8.596;2024-01-30T00:52:18;2.30;87.10
6738;DHT22;3406;49.902;8.596;2024-01-30T00:54:45;2.20;87.00
6738;DHT22;3406;49.902;8.596;2024-01-30T00:57:13;2.20;87.00
6738;DHT22;3406;49.902;8.596;2024-01-30T00:59:40;2.20;87.00
6738;DHT22;3406;49.902;8.596;2024-01-30T01:02:06;2.20;87.10
6738;DHT22;3406;49.902;8.596;2024-01-30T01:04:33;2.20;87.10
6738;DHT22;3406;49.902;8.596;2024-01-30T01:06:59;2.10;87.10
6738;DHT22;3406;49.902;8.596;2024-01-30T01:09:26;2.10;87.20
6738;DHT22;3406;49.902;8.596;2024-01-30T01:11:53;2.10;87.20
6738;DHT22;3406;49.902;8.596;2024-01-30T01:14:21;2.10;87.30
6738;DHT22;3406;49.902;8.596;2024-01-30T01:16:47;2.10;87.30
6738;DHT22;3406;49.902;8.596;2024-01-30T01:19:14;2.10;87.30
6738;DHT22;3406;49.902;8.596;2024-01-30T01:21:40;2.10;87.40
6738;DHT22;3406;49.902;8.596;2024-01-30T01:24:07;2.10;87.40
6738;DHT22;3406;49.902;8.596;2024-01-30T01:26:34;2.10;87.40
6738;DHT22;3406;49.902;8.596;2024-01-30T01:29:00;2.10;87.50
6738;DHT22;3406;49.902;8.596;2024-01-30T01:31:31;2.10;87.50
6738;DHT22;3406;49.902;8.596;2024-01-30T01:33:57;2.00;87.40
6738;DHT22;3406;49.902;8.596;2024-01-30T01:36:24;2.00;87.40
6738;DHT22;3406;49.902;8.596;2024-01-30T01:38:51;2.00;87.40
6738;DHT22;3406;49.902;8.596;2024-01-30T01:44:39;2.00;87.50
6738;DHT22;3406;49.902;8.596;2024-01-30T01:47:07;1.90;87.60
6738;DHT22;3406;49.902;8.596;2024-01-30T01:49:34;1.90;87.60
6738;DHT22;3406;49.902;8.596;2024-01-30T01:52:01;1.90;87.70
6738;DHT22;3406;49.902;8.596;2024-01-30T01:54:28;2.00;87.80
6738;DHT22;3406;49.902;8.596;2024-01-30T01:56:55;1.90;87.80
6738;DHT22;3406;49.902;8.596;2024-01-30T01:59:24;1.90;87.70
6738;DHT22;3406;49.902;8.596;2024-01-30T02:01:52;2.00;87.90
6738;DHT22;3406;49.902;8.596;2024-01-30T02:04:20;2.00;88.00
6738;DHT22;3406;49.902;8.596;2024-01-30T02:06:47;2.00;88.00
6738;DHT22;3406;49.902;8.596;2024-01-30T02:09:14;2.00;88.00
6738;DHT22;3406;49.902;8.596;2024-01-30T02:11:41;2.00;88.00
6738;DHT22;3406;49.902;8.596;2024-01-30T02:14:08;2.00;88.00
6738;DHT22;3406;49.902;8.596;2024-01-30T02:16:34;2.00;88.00
6738;DHT22;3406;49.902;8.596;2024-01-30T02:19:02;2.00;88.10
6738;DHT22;3406;49.902;8.596;2024-01-30T02:21:30;2.00;88.10
6738;DHT22;3406;49.902;8.596;2024-01-30T02:23:57;2.00;88.10
6738;DHT22;3406;49.902;8.596;2024-01-30T02:26:25;2.00;88.20
6738;DHT22;3406;49.902;8.596;2024-01-30T02:28:51;2.00;88.20
6738;DHT22;3406;49.902;8.596;2024-01-30T02:31:18;2.00;88.20
6738;DHT22;3406;49.902;8.596;2024-01-30T02:33:44;2.00;88.30
6738;DHT22;3406;49.902;8.596;2024-01-30T02:36:11;2.00;88.20
6738;DHT22;3406;49.902;8.596;2024-01-30T02:38:39;2.10;88.40
6738;DHT22;3406;49.902;8.596;2024-01-30T02:41:06;2.10;88.40
6738;DHT22;3406;49.902;8.596;2024-01-30T02:43:32;2.10;88.40
6738;DHT22;3406;49.902;8.596;2024-01-30T02:45:58;2.10;88.40
6738;DHT22;3406;49.902;8.596;2024-01-30T02:48:26;2.10;88.40
6738;DHT22;3406;49.902;8.596;2024-01-30T02:50:53;2.10;88.50
6738;DHT22;3406;49.902;8.596;2024-01-30T02:53:19;2.10;88.50
6738;DHT22;3406;49.902;8.596;2024-01-30T02:55:47;2.10;88.40
6738;DHT22;3406;49.902;8.596;2024-01-30T02:58:14;2.10;88.40
6738;DHT22;3406;49.902;8.596;2024-01-30T03:00:40;2.00;88.30
6738;DHT22;3406;49.902;8.596;2024-01-30T03:03:07;2.00;88.30
6738;DHT22;3406;49.902;8.596;2024-01-30T03:05:34;2.00;89.00
6738;DHT22;3406;49.902;8.596;2024-01-30T03:08:01;2.00;88.30
6738;DHT22;3406;49.902;8.596;2024-01-30T03:10:27;2.00;88.50
6738;DHT22;3406;49.902;8.596;2024-01-30T03:12:55;2.00;88.50
6738;DHT22;3406;49.902;8.596;2024-01-30T03:15:22;1.90;88.40
6738;DHT22;3406;49.902;8.596;2024-01-30T03:17:49;1.90;88.60
6738;DHT22;3406;49.902;8.596;2024-01-30T03:20:16;1.90;88.60
6738;DHT22;3406;49.902;8.596;2024-01-30T03:22:42;1.90;88.60
6738;DHT22;3406;49.902;8.596;2024-01-30T03:25:09;1.90;88.60
6738;DHT22;3406;49.902;8.596;2024-01-30T03:27:35;1.90;88.60
6738;DHT22;3406;49.902;8.596;2024-01-30T03:30:05;1.90;88.60
6738;DHT22;3406;49.902;8.596;2024-01-30T03:32:32;1.90;88.70
6738;DHT22;3406;49.902;8.596;2024-01-30T03:34:58;1.80;88.60
6738;DHT22;3406;49.902;8.596;2024-01-30T03:37:25;1.80;88.60
6738;DHT22;3406;49.902;8.596;2024-01-30T03:39:51;1.80;88.60
6738;DHT22;3406;49.902;8.596;2024-01-30T03:42:18;1.80;88.60
6738;DHT22;3406;49.902;8.596;2024-01-30T03:44:45;1.80;88.70
6738;DHT22;3406;49.902;8.596;2024-01-30T03:47:13;1.80;88.70
6738;DHT22;3406;49.902;8.596;2024-01-30T03:49:40;1.80;88.70
6738;DHT22;3406;49.902;8.596;2024-01-30T03:52:06;1.80;88.70
6738;DHT22;3406;49.902;8.596;2024-01-30T03:54:33;1.70;88.60
6738;DHT22;3406;49.902;8.596;2024-01-30T03:57:00;1.70;88.60
6738;DHT22;3406;49.902;8.596;2024-01-30T03:59:26;1.70;88.70
6738;DHT22;3406;49.902;8.596;2024-01-30T04:01:53;1.70;88.70
6738;DHT22;3406;49.902;8.596;2024-01-30T04:04:21;1.70;88.70
6738;DHT22;3406;49.902;8.596;2024-01-30T04:06:48;1.60;88.60
6738;DHT22;3406;49.902;8.596;2024-01-30T04:09:15;1.60;88.60
6738;DHT22;3406;49.902;8.596;2024-01-30T04:11:42;1.60;88.70
6738;DHT22;3406;49.902;8.596;2024-01-30T04:14:09;1.60;88.80
6738;DHT22;3406;49.902;8.596;2024-01-30T04:16:35;1.60;88.90
6738;DHT22;3406;49.902;8.596;2024-01-30T04:19:02;1.60;88.90
6738;DHT22;3406;49.902;8.596;2024-01-30T04:21:30;1.50;88.80
6738;DHT22;3406;49.902;8.596;2024-01-30T04:23:57;1.50;88.80
6738;DHT22;3406;49.902;8.596;2024-01-30T04:26:23;1.50;88.80
6738;DHT22;3406;49.902;8.596;2024-01-30T04:28:50;1.50;88.80
6738;DHT22;3406;49.902;8.596;2024-01-30T04:31:17;1.50;88.90
6738;DHT22;3406;49.902;8.596;2024-01-30T04:33:43;1.50;88.90
6738;DHT22;3406;49.902;8.596;2024-01-30T04:36:10;1.50;89.00
6738;DHT22;3406;49.902;8.596;2024-01-30T04:38:38;1.50;89.70
6738;DHT22;3406;49.902;8.596;2024-01-30T04:41:05;1.50;89.10
6738;DHT22;3406;49.902;8.596;2024-01-30T04:43:31;1.50;89.20
6738;DHT22;3406;49.902;8.596;2024-01-30T04:45:58;1.50;89.20
6738;DHT22;3406;49.902;8.596;2024-01-30T04:48:25;1.50;89.20
6738;DHT22;3406;49.902;8.596;2024-01-30T04:50:51;1.50;89.20
6738;DHT22;3406;49.902;8.596;2024-01-30T04:53:18;1.50;89.10
6738;DHT22;3406;49.902;8.596;2024-01-30T04:55:46;1.50;89.10
6738;DHT22;3406;49.902;8.596;2024-01-30T04:58:13;1.50;89.10
6738;DHT22;3406;49.902;8.596;2024-01-30T05:00:39;1.50;89.10
6738;DHT22;3406;49.902;8.596;2024-01-30T05:03:06;1.40;89.10
6738;DHT22;3406;49.902;8.596;2024-01-30T05:05:33;1.40;89.20
6738;DHT22;3406;49.902;8.596;2024-01-30T05:07:59;1.40;89.20
6738;DHT22;3406;49.902;8.596;2024-01-30T05:10:26;1.40;89.20
6738;DHT22;3406;49.902;8.596;2024-01-30T05:12:55;1.40;89.20
6738;DHT22;3406;49.902;8.596;2024-01-30T05:15:22;1.40;89.20
6738;DHT22;3406;49.902;8.596;2024-01-30T05:17:48;1.40;89.20
6738;DHT22;3406;49.902;8.596;2024-01-30T05:20:16;1.40;89.30
6738;DHT22;3406;49.902;8.596;2024-01-30T05:22:42;1.40;89.30
6738;DHT22;3406;49.902;8.596;2024-01-30T05:25:10;1.30;89.20
6738;DHT22;3406;49.902;8.596;2024-01-30T05:27:37;1.30;89.30
6738;DHT22;3406;49.902;8.596;2024-01-30T05:30:06;1.30;89.30
6738;DHT22;3406;49.902;8.596;2024-01-30T05:32:33;1.30;89.40
6738;DHT22;3406;49.902;8.596;2024-01-30T05:35:00;1.40;89.50
6738;DHT22;3406;49.902;8.596;2024-01-30T05:37:26;1.40;90.00
6738;DHT22;3406;49.902;8.596;2024-01-30T05:39:53;1.30;89.40
6738;DHT22;3406;49.902;8.596;2024-01-30T05:42:19;1.30;89.40
6738;DHT22;3406;49.902;8.596;2024-01-30T05:44:46;1.30;89.40
6738;DHT22;3406;49.902;8.596;2024-01-30T05:47:14;1.30;89.40
6738;DHT22;3406;49.902;8.596;2024-01-30T05:49:41;1.30;89.40
6738;DHT22;3406;49.902;8.596;2024-01-30T05:52:07;1.30;89.50
6738;DHT22;3406;49.902;8.596;2024-01-30T05:54:35;1.30;89.50
6738;DHT22;3406;49.902;8.596;2024-01-30T05:57:02;1.30;89.60
6738;DHT22;3406;49.902;8.596;2024-01-30T05:59:28;1.30;89.60
6738;DHT22;3406;49.902;8.596;2024-01-30T06:01:55;1.30;89.80
6738;DHT22;3406;49.902;8.596;2024-01-30T06:04:23;1.30;90.10
6738;DHT22;3406;49.902;8.596;2024-01-30T06:06:50;1.40;90.20
6738;DHT22;3406;49.902;8.596;2024-01-30T06:09:16;1.40;90.10
6738;DHT22;3406;49.902;8.596;2024-01-30T06:11:43;1.40;90.10
6738;DHT22;3406;49.902;8.596;2024-01-30T06:14:09;1.40;90.10
6738;DHT22;3406;49.902;8.596;2024-01-30T06:16:36;1.40;90.00
6738;DHT22;3406;49.902;8.596;2024-01-30T06:19:03;1.40;90.10
6738;DHT22;3406;49.902;8.596;2024-01-30T06:21:31;1.40;90.10
6738;DHT22;3406;49.902;8.596;2024-01-30T06:24:02;1.40;90.10
6738;DHT22;3406;49.902;8.596;2024-01-30T06:26:28;1.40;90.00
6738;DHT22;3406;49.902;8.596;2024-01-30T06:28:55;1.40;90.00
6738;DHT22;3406;49.902;8.596;2024-01-30T06:31:22;1.40;90.00
6738;DHT22;3406;49.902;8.596;2024-01-30T06:33:49;1.30;89.90
6738;DHT22;3406;49.902;8.596;2024-01-30T06:36:16;1.30;89.90
6738;DHT22;3406;49.902;8.596;2024-01-30T06:38:44;1.30;89.90
6738;DHT22;3406;49.902;8.596;2024-01-30T06:41:11;1.20;89.80
6738;DHT22;3406;49.902;8.596;2024-01-30T06:43:37;1.30;90.00
6738;DHT22;3406;49.902;8.596;2024-01-30T06:46:04;1.30;90.00
6738;DHT22;3406;49.902;8.596;2024-01-30T06:48:31;1.30;90.00
6738;DHT22;3406;49.902;8.596;2024-01-30T06:50:58;1.30;90.00
6738;DHT22;3406;49.902;8.596;2024-01-30T06:53:24;1.30;90.00
6738;DHT22;3406;49.902;8.596;2024-01-30T06:55:53;1.30;90.00
6738;DHT22;3406;49.902;8.596;2024-01-30T06:58:20;1.30;90.00
6738;DHT22;3406;49.902;8.596;2024-01-30T07:00:46;1.30;90.00
6738;DHT22;3406;49.902;8.596;2024-01-30T07:03:13;1.30;90.00
6738;DHT22;3406;49.902;8.596;2024-01-30T07:05:40;1.30;90.00
6738;DHT22;3406;49.902;8.596;2024-01-30T07:08:06;1.30;90.00
6738;DHT22;3406;49.902;8.596;2024-01-30T07:10:33;1.30;90.00
6738;DHT22;3406;49.902;8.596;2024-01-30T07:13:01;1.30;90.10
6738;DHT22;3406;49.902;8.596;2024-01-30T07:15:29;1.30;90.10
6738;DHT22;3406;49.902;8.596;2024-01-30T07:17:56;1.30;90.10
6738;DHT22;3406;49.902;8.596;2024-01-30T07:20:22;1.30;90.10
6738;DHT22;3406;49.902;8.596;2024-01-30T07:22:49;1.30;90.10
6738;DHT22;3406;49.902;8.596;2024-01-30T07:25:16;1.30;90.10
6738;DHT22;3406;49.902;8.596;2024-01-30T07:27:43;1.30;90.10
6738;DHT22;3406;49.902;8.596;2024-01-30T07:30:12;1.30;90.10
6738;DHT22;3406;49.902;8.596;2024-01-30T07:32:39;1.30;90.10
6738;DHT22;3406;49.902;8.596;2024-01-30T07:35:06;1.30;90.50
6738;DHT22;3406;49.902;8.596;2024-01-30T07:37:32;1.40;90.20
6738;DHT22;3406;49.902;8.596;2024-01-30T07:39:59;1.40;90.20
6738;DHT22;3406;49.902;8.596;2024-01-30T07:42:26;1.40;90.20
6738;DHT22;3406;49.902;8.596;2024-01-30T07:44:52;1.40;90.30
6738;DHT22;3406;49.902;8.596;2024-01-30T07:47:20;1.40;90.40
6738;DHT22;3406;49.902;8.596;2024-01-30T07:49:47;1.50;90.40
6738;DHT22;3406;49.902;8.596;2024-01-30T07:52:14;1.50;90.40
6738;DHT22;3406;49.902;8.596;2024-01-30T07:54:41;1.60;90.50
6738;DHT22;3406;49.902;8.596;2024-01-30T07:57:07;1.60;90.40
6738;DHT22;3406;49.902;8.596;2024-01-30T07:59:34;1.60;90.50
6738;DHT22;3406;49.902;8.596;2024-01-30T08:02:00;1.70;90.50
6738;DHT22;3406;49.902;8.596;2024-01-30T08:04:28;1.70;90.50
6738;DHT22;3406;49.902;8.596;2024-01-30T08:06:55;1.80;90.50
6738;DHT22;3406;49.902;8.596;2024-01-30T08:09:22;1.80;90.50
6738;DHT22;3406;49.902;8.596;2024-01-30T08:11:48;1.80;90.50
6738;DHT22;3406;49.902;8.596;2024-01-30T08:14:15;1.90;90.50
6738;DHT22;3406;49.902;8.596;2024-01-30T08:16:41;1.90;90.60
6738;DHT22;3406;49.902;8.596;2024-01-30T08:19:08;1.90;90.60
6738;DHT22;3406;49.902;8.596;2024-01-30T08:21:36;2.00;90.80
6738;DHT22;3406;49.902;8.596;2024-01-30T08:24:03;2.00;90.80
6738;DHT22;3406;49.902;8.596;2024-01-30T08:26:31;2.10;91.10
6738;DHT22;3406;49.902;8.596;2024-01-30T08:28:58;2.20;90.80
6738;DHT22;3406;49.902;8.596;2024-01-30T08:31:25;2.20;90.80
6738;DHT22;3406;49.902;8.596;2024-01-30T08:33:51;2.30;90.90
6738;DHT22;3406;49.902;8.596;2024-01-30T08:36:18;2.30;90.80
6738;DHT22;3406;49.902;8.596;2024-01-30T08:38:46;2.40;90.90
6738;DHT22;3406;49.902;8.596;2024-01-30T08:41:13;2.40;90.90
6738;DHT22;3406;49.902;8.596;2024-01-30T08:43:40;2.50;91.00
6738;DHT22;3406;49.902;8.596;2024-01-30T08:46:07;2.50;91.00
6738;DHT22;3406;49.902;8.596;2024-01-30T08:48:33;2.60;91.00
6738;DHT22;3406;49.902;8.596;2024-01-30T08:51:02;2.70;91.10
6738;DHT22;3406;49.902;8.596;2024-01-30T08:53:28;2.80;91.10
6738;DHT22;3406;49.902;8.596;2024-01-30T08:55:56;2.90;91.10
6738;DHT22;3406;49.902;8.596;2024-01-30T08:58:24;3.00;91.20
6738;DHT22;3406;49.902;8.596;2024-01-30T09:00:51;3.00;91.20
6738;DHT22;3406;49.902;8.596;2024-01-30T09:03:18;3.10;91.20
6738;DHT22;3406;49.902;8.596;2024-01-30T09:05:44;3.20;91.30
6738;DHT22;3406;49.902;8.596;2024-01-30T09:08:11;3.30;91.30
6738;DHT22;3406;49.902;8.596;2024-01-30T09:10:38;3.40;91.30
6738;DHT22;3406;49.902;8.596;2024-01-30T09:13:06;3.40;91.30
6738;DHT22;3406;49.902;8.596;2024-01-30T09:15:33;3.40;91.30
6738;DHT22;3406;49.902;8.596;2024-01-30T09:17:59;3.50;91.40
6738;DHT22;3406;49.902;8.596;2024-01-30T09:20:26;3.50;91.50
6738;DHT22;3406;49.902;8.596;2024-01-30T09:22:53;3.50;91.60
6738;DHT22;3406;49.902;8.596;2024-01-30T09:25:19;3.60;91.60
6738;DHT22;3406;49.902;8.596;2024-01-30T09:27:46;3.70;91.70
6738;DHT22;3406;49.902;8.596;2024-01-30T09:30:14;3.70;91.70
6738;DHT22;3406;49.902;8.596;2024-01-30T09:32:42;3.80;91.80
6738;DHT22;3406;49.902;8.596;2024-01-30T09:35:09;3.90;91.90
6738;DHT22;3406;49.902;8.596;2024-01-30T09:37:36;4.00;91.90
6738;DHT22;3406;49.902;8.596;2024-01-30T09:40:03;4.00;91.80
6738;DHT22;3406;49.902;8.596;2024-01-30T09:42:33;4.00;91.90
6738;DHT22;3406;49.902;8.596;2024-01-30T09:45:02;4.10;91.90
6738;DHT22;3406;49.902;8.596;2024-01-30T09:47:32;4.10;91.90
6738;DHT22;3406;49.902;8.596;2024-01-30T09:49:59;4.10;92.00
6738;DHT22;3406;49.902;8.596;2024-01-30T09:52:28;4.20;92.10
6738;DHT22;3406;49.902;8.596;2024-01-30T09:54:55;4.20;92.10
6738;DHT22;3406;49.902;8.596;2024-01-30T09:57:22;4.40;92.50
6738;DHT22;3406;49.902;8.596;2024-01-30T09:59:49;4.60;92.40
6738;DHT22;3406;49.902;8.596;2024-01-30T10:02:18;4.70;92.30
6738;DHT22;3406;49.902;8.596;2024-01-30T10:04:48;4.80;92.10
6738;DHT22;3406;49.902;8.596;2024-01-30T10:07:15;4.80;92.10
6738;DHT22;3406;49.902;8.596;2024-01-30T10:09:41;4.80;92.10
6738;DHT22;3406;49.902;8.596;2024-01-30T10:12:09;4.80;92.10
6738;DHT22;3406;49.902;8.596;2024-01-30T10:14:38;4.80;92.20
6738;DHT22;3406;49.902;8.596;2024-01-30T10:17:04;4.90;92.20
6738;DHT22;3406;49.902;8.596;2024-01-30T10:19:31;4.90;92.30
6738;DHT22;3406;49.902;8.596;2024-01-30T10:22:01;5.00;92.40
6738;DHT22;3406;49.902;8.596;2024-01-30T10:24:28;5.10;92.50
6738;DHT22;3406;49.902;8.596;2024-01-30T10:26:55;5.20;92.40
6738;DHT22;3406;49.902;8.596;2024-01-30T10:29:22;5.20;92.30
6738;DHT22;3406;49.902;8.596;2024-01-30T10:31:57;5.20;92.40
6738;DHT22;3406;49.902;8.596;2024-01-30T10:34:24;5.30;92.40
6738;DHT22;3406;49.902;8.596;2024-01-30T10:36:59;5.40;92.40
6738;DHT22;3406;49.902;8.596;2024-01-30T10:39:29;5.50;92.50
6738;DHT22;3406;49.902;8.596;2024-01-30T10:41:56;5.50;92.40
6738;DHT22;3406;49.902;8.596;2024-01-30T10:44:28;5.60;92.40
6738;DHT22;3406;49.902;8.596;2024-01-30T10:47:00;5.60;92.30
6738;DHT22;3406;49.902;8.596;2024-01-30T10:49:30;5.60;92.30
6738;DHT22;3406;49.902;8.596;2024-01-30T10:51:57;5.70;92.30
6738;DHT22;3406;49.902;8.596;2024-01-30T10:54:26;5.70;92.30
6738;DHT22;3406;49.902;8.596;2024-01-30T10:56:53;5.70;92.30
6738;DHT22;3406;49.902;8.596;2024-01-30T10:59:23;5.70;92.40
6738;DHT22;3406;49.902;8.596;2024-01-30T11:01:51;5.80;92.40
6738;DHT22;3406;49.902;8.596;2024-01-30T11:04:17;5.80;92.40
6738;DHT22;3406;49.902;8.596;2024-01-30T11:06:44;5.90;92.50
6738;DHT22;3406;49.902;8.596;2024-01-30T11:09:11;6.00;92.50
6738;DHT22;3406;49.902;8.596;2024-01-30T11:11:56;6.10;92.40
6738;DHT22;3406;49.902;8.596;2024-01-30T11:14:25;6.20;92.40
6738;DHT22;3406;49.902;8.596;2024-01-30T11:16:52;6.30;92.40
6738;DHT22;3406;49.902;8.596;2024-01-30T11:19:23;6.40;92.50
6738;DHT22;3406;49.902;8.596;2024-01-30T11:21:50;6.50;92.40
6738;DHT22;3406;49.902;8.596;2024-01-30T11:24:19;6.50;92.30
6738;DHT22;3406;49.902;8.596;2024-01-30T11:26:48;6.50;92.10
6738;DHT22;3406;49.902;8.596;2024-01-30T11:29:17;6.50;92.10
6738;DHT22;3406;49.902;8.596;2024-01-30T11:31:51;6.50;92.10
6738;DHT22;3406;49.902;8.596;2024-01-30T11:34:18;6.50;92.10
6738;DHT22;3406;49.902;8.596;2024-01-30T11:36:51;6.60;92.10
6738;DHT22;3406;49.902;8.596;2024-01-30T11:39:20;6.60;92.10
6738;DHT22;3406;49.902;8.596;2024-01-30T11:41:48;6.60;92.10
6738;DHT22;3406;49.902;8.596;2024-01-30T11:44:19;6.60;92.10
6738;DHT22;3406;49.902;8.596;2024-01-30T11:46:47;6.70;92.20
6738;DHT22;3406;49.902;8.596;2024-01-30T11:49:13;6.80;92.20
6738;DHT22;3406;49.902;8.596;2024-01-30T11:51:40;6.80;92.10
6738;DHT22;3406;49.902;8.596;2024-01-30T11:54:08;6.90;92.50
6738;DHT22;3406;49.902;8.596;2024-01-30T11:56:34;7.00;92.20
6738;DHT22;3406;49.902;8.596;2024-01-30T11:59:02;7.10;92.30
6738;DHT22;3406;49.902;8.596;2024-01-30T12:01:31;7.20;92.30
6738;DHT22;3406;49.902;8.596;2024-01-30T12:03:58;7.40;92.30
6738;DHT22;3406;49.902;8.596;2024-01-30T12:06:25;7.50;92.30
6738;DHT22;3406;49.902;8.596;2024-01-30T12:08:57;7.60;92.20
6738;DHT22;3406;49.902;8.596;2024-01-30T12:11:24;7.70;92.20
6738;DHT22;3406;49.902;8.596;2024-01-30T12:13:51;7.80;92.10
6738;DHT22;3406;49.902;8.596;2024-01-30T12:16:19;7.90;92.10
6738;DHT22;3406;49.902;8.596;2024-01-30T12:18:47;8.00;92.10
6738;DHT22;3406;49.902;8.596;2024-01-30T12:21:16;8.10;92.00
6738;DHT22;3406;49.902;8.596;2024-01-30T12:23:43;8.20;91.90
6738;DHT22;3406;49.902;8.596;2024-01-30T12:26:10;8.30;91.90
6738;DHT22;3406;49.902;8.596;2024-01-30T12:28:46;8.40;91.80
6738;DHT22;3406;49.902;8.596;2024-01-30T12:31:13;8.50;91.80
6738;DHT22;3406;49.902;8.596;2024-01-30T12:33:40;8.50;91.60
6738;DHT22;3406;49.902;8.596;2024-01-30T12:36:08;8.60;91.60
6738;DHT22;3406;49.902;8.596;2024-01-30T12:38:35;8.70;91.50
6738;DHT22;3406;49.902;8.596;2024-01-30T12:41:01;8.70;91.50
6738;DHT22;3406;49.902;8.596;2024-01-30T12:43:29;8.80;91.50
6738;DHT22;3406;49.902;8.596;2024-01-30T12:45:55;8.80;91.40
6738;DHT22;3406;49.902;8.596;2024-01-30T12:48:22;9.00;91.50
6738;DHT22;3406;49.902;8.596;2024-01-30T12:50:49;9.10;91.40
6738;DHT22;3406;49.902;8.596;2024-01-30T12:53:17;9.20;91.30
6738;DHT22;3406;49.902;8.596;2024-01-30T12:55:44;9.30;91.10
6738;DHT22;3406;49.902;8.596;2024-01-30T12:58:10;9.30;91.00
6738;DHT22;3406;49.902;8.596;2024-01-30T13:00:37;9.40;90.90
6738;DHT22;3406;49.902;8.596;2024-01-30T13:03:04;9.50;90.80
6738;DHT22;3406;49.902;8.596;2024-01-30T13:05:31;9.50;90.80
6738;DHT22;3406;49.902;8.596;2024-01-30T13:07:57;9.60;90.70
6738;DHT22;3406;49.902;8.596;2024-01-30T13:10:25;9.70;90.60
6738;DHT22;3406;49.902;8.596;2024-01-30T13:12:52;9.70;90.40
6738;DHT22;3406;49.902;8.596;2024-01-30T13:15:19;9.80;90.20
6738;DHT22;3406;49.902;8.596;2024-01-30T13:17:48;9.80;90.10
6738;DHT22;3406;49.902;8.596;2024-01-30T13:20:15;9.90;90.00
6738;DHT22;3406;49.902;8.596;2024-01-30T13:22:44;9.90;89.80
6738;DHT22;3406;49.902;8.596;2024-01-30T13:25:11;10.00;88.50
6738;DHT22;3406;49.902;8.596;2024-01-30T13:27:39;10.00;88.10
6738;DHT22;3406;49.902;8.596;2024-01-30T13:30:07;10.00;88.00
6738;DHT22;3406;49.902;8.596;2024-01-30T13:32:34;10.00;87.90
6738;DHT22;3406;49.902;8.596;2024-01-30T13:35:01;10.00;87.60
6738;DHT22;3406;49.902;8.596;2024-01-30T13:37:28;10.00;87.50
6738;DHT22;3406;49.902;8.596;2024-01-30T13:39:55;10.10;87.40
6738;DHT22;3406;49.902;8.596;2024-01-30T13:42:22;10.10;87.10
6738;DHT22;3406;49.902;8.596;2024-01-30T13:44:50;10.10;86.90
6738;DHT22;3406;49.902;8.596;2024-01-30T13:47:16;10.10;86.30
6738;DHT22;3406;49.902;8.596;2024-01-30T13:49:44;10.10;86.00
6738;DHT22;3406;49.902;8.596;2024-01-30T13:52:11;10.10;85.40
6738;DHT22;3406;49.902;8.596;2024-01-30T13:54:37;10.10;85.00
6738;DHT22;3406;49.902;8.596;2024-01-30T13:57:04;10.20;85.00
6738;DHT22;3406;49.902;8.596;2024-01-30T13:59:32;10.20;84.60
6738;DHT22;3406;49.902;8.596;2024-01-30T14:02:00;10.20;84.40
6738;DHT22;3406;49.902;8.596;2024-01-30T14:04:26;10.20;84.00
6738;DHT22;3406;49.902;8.596;2024-01-30T14:06:53;10.20;83.90
6738;DHT22;3406;49.902;8.596;2024-01-30T14:09:20;10.20;83.80
6738;DHT22;3406;49.902;8.596;2024-01-30T14:11:46;10.30;83.70
6738;DHT22;3406;49.902;8.596;2024-01-30T14:14:13;10.30;83.50
6738;DHT22;3406;49.902;8.596;2024-01-30T14:16:40;10.30;83.20
6738;DHT22;3406;49.902;8.596;2024-01-30T14:19:08;10.20;82.90
6738;DHT22;3406;49.902;8.596;2024-01-30T14:21:34;10.20;82.70
6738;DHT22;3406;49.902;8.596;2024-01-30T14:24:02;10.20;82.60
6738;DHT22;3406;49.902;8.596;2024-01-30T14:26:29;10.20;82.50
6738;DHT22;3406;49.902;8.596;2024-01-30T14:28:56;10.20;82.20
6738;DHT22;3406;49.902;8.596;2024-01-30T14:31:23;10.10;82.70
6738;DHT22;3406;49.902;8.596;2024-01-30T14:33:49;10.10;82.00
6738;DHT22;3406;49.902;8.596;2024-01-30T14:36:18;10.10;81.90
6738;DHT22;3406;49.902;8.596;2024-01-30T14:38:45;10.10;81.80
6738;DHT22;3406;49.902;8.596;2024-01-30T14:41:12;10.10;81.70
6738;DHT22;3406;49.902;8.596;2024-01-30T14:43:39;10.10;81.60
6738;DHT22;3406;49.902;8.596;2024-01-30T14:46:05;10.10;81.60
6738;DHT22;3406;49.902;8.596;2024-01-30T14:48:32;10.10;81.50
6738;DHT22;3406;49.902;8.596;2024-01-30T14:50:59;10.10;81.30
6738;DHT22;3406;49.902;8.596;2024-01-30T14:53:27;10.10;81.40
6738;DHT22;3406;49.902;8.596;2024-01-30T14:55:54;10.00;81.30
6738;DHT22;3406;49.902;8.596;2024-01-30T14:58:20;10.00;81.20
6738;DHT22;3406;49.902;8.596;2024-01-30T15:00:47;10.00;81.20
6738;DHT22;3406;49.902;8.596;2024-01-30T15:03:14;10.10;81.20
6738;DHT22;3406;49.902;8.596;2024-01-30T15:05:41;10.10;81.20
6738;DHT22;3406;49.902;8.596;2024-01-30T15:08:07;10.10;81.20
6738;DHT22;3406;49.902;8.596;2024-01-30T15:10:35;10.00;81.10
6738;DHT22;3406;49.902;8.596;2024-01-30T15:13:02;10.00;81.10
6738;DHT22;3406;49.902;8.596;2024-01-30T15:15:29;10.00;81.10
6738;DHT22;3406;49.902;8.596;2024-01-30T15:17:56;10.00;81.20
6738;DHT22;3406;49.902;8.596;2024-01-30T15:20:23;10.00;81.30
6738;DHT22;3406;49.902;8.596;2024-01-30T15:22:49;10.00;81.30
6738;DHT22;3406;49.902;8.596;2024-01-30T15:25:16;9.90;82.40
6738;DHT22;3406;49.902;8.596;2024-01-30T15:27:44;9.90;82.50
6738;DHT22;3406;49.902;8.596;2024-01-30T15:30:12;9.90;82.60
6738;DHT22;3406;49.902;8.596;2024-01-30T15:32:39;9.90;82.60
6738;DHT22;3406;49.902;8.596;2024-01-30T15:35:06;9.90;82.60
6738;DHT22;3406;49.902;8.596;2024-01-30T15:37:33;9.90;82.60
6738;DHT22;3406;49.902;8.596;2024-01-30T15:40:00;9.90;82.60
6738;DHT22;3406;49.902;8.596;2024-01-30T15:42:28;9.90;82.70
6738;DHT22;3406;49.902;8.596;2024-01-30T15:44:57;9.90;82.70
6738;DHT22;3406;49.902;8.596;2024-01-30T15:47:24;9.90;82.70
6738;DHT22;3406;49.902;8.596;2024-01-30T15:49:51;9.90;82.80
6738;DHT22;3406;49.902;8.596;2024-01-30T15:52:18;9.90;82.90
6738;DHT22;3406;49.902;8.596;2024-01-30T15:54:46;9.90;82.90
6738;DHT22;3406;49.902;8.596;2024-01-30T15:57:12;9.80;82.90
6738;DHT22;3406;49.902;8.596;2024-01-30T15:59:39;9.80;83.00
6738;DHT22;3406;49.902;8.596;2024-01-30T16:02:07;9.80;83.00
6738;DHT22;3406;49.902;8.596;2024-01-30T16:04:34;9.80;82.90
6738;DHT22;3406;49.902;8.596;2024-01-30T16:07:00;9.90;83.10
6738;DHT22;3406;49.902;8.596;2024-01-30T16:09:27;9.80;83.00
6738;DHT22;3406;49.902;8.596;2024-01-30T16:11:53;9.80;83.00
6738;DHT22;3406;49.902;8.596;2024-01-30T16:14:20;9.90;83.80
6738;DHT22;3406;49.902;8.596;2024-01-30T16:16:47;9.80;83.00
6738;DHT22;3406;49.902;8.596;2024-01-30T16:19:15;9.90;83.20